Terminal Aerodrome Forecast
Issued by NWS Jackson, KY

Home | Current Version | Previous Version | Text Only | Print | Product List | Glossary On
Versions: 1 2 3 4 5 6 7 8 9 10 11 12 13 14 15 16
323
FTUS43 KJKL 190534
TAFLOZ
TAF
KLOZ 190534Z 1906/2006 VRB03KT 4SM BR SCT120
     FM190900 VRB03KT 2SM BR SCT001
     FM191200 VRB03KT 3SM BR SCT002
     FM191300 VRB03KT P6SM SCT040
     FM191800 VRB05KT P6SM VCSH BKN050
     FM200000 VRB03KT P6SM SCT060=

USA.gov is the U.S. government's official web portal to all federal, state and local government web resources and services.